createdAt,value
2018-03-19T00:00:17.944Z,60.90
2018-03-19T00:02:44.185Z,60.80
2018-03-19T00:05:10.446Z,60.70
2018-03-19T00:07:36.646Z,61.20
2018-03-19T00:10:02.892Z,60.90
2018-03-19T00:12:29.107Z,61.00
2018-03-19T00:14:55.328Z,60.90
2018-03-19T00:17:21.544Z,60.90
2018-03-19T00:19:47.761Z,61.50
2018-03-19T00:22:13.995Z,61.40
2018-03-19T00:24:40.232Z,61.20
2018-03-19T00:27:06.441Z,61.00
2018-03-19T00:29:32.680Z,61.70
2018-03-19T00:31:58.864Z,61.80
2018-03-19T00:34:25.127Z,61.70
2018-03-19T00:36:51.307Z,62.00
2018-03-19T00:39:17.506Z,62.00
2018-03-19T00:41:43.719Z,62.20
2018-03-19T00:44:09.912Z,62.60
2018-03-19T00:46:36.126Z,62.50
2018-03-19T00:49:02.328Z,62.40
2018-03-19T00:51:28.535Z,62.50
2018-03-19T00:53:54.777Z,62.10
2018-03-19T00:56:21.009Z,61.20
2018-03-19T00:58:47.257Z,60.80
2018-03-19T01:01:13.468Z,61.00
2018-03-19T01:03:39.692Z,61.00
2018-03-19T01:06:05.878Z,60.30
2018-03-19T01:08:32.147Z,60.70
2018-03-19T01:10:58.376Z,60.70
2018-03-19T01:13:24.567Z,60.60
2018-03-19T01:15:50.751Z,61.20
2018-03-19T01:18:17.750Z,61.90
2018-03-19T01:20:43.976Z,61.80
2018-03-19T01:23:10.205Z,62.10
2018-03-19T01:25:36.410Z,62.10
2018-03-19T01:28:03.352Z,62.70
2018-03-19T01:30:30.305Z,62.80
2018-03-19T01:32:57.239Z,62.70
2018-03-19T01:35:24.164Z,63.00
2018-03-19T01:37:50.413Z,62.80
2018-03-19T01:40:17.340Z,62.70
2018-03-19T01:42:44.357Z,62.70
2018-03-19T01:45:10.607Z,62.70
2018-03-19T01:47:36.831Z,62.70
2018-03-19T01:50:03.078Z,62.60
2018-03-19T01:52:42.108Z,62.90
2018-03-19T01:55:09.055Z,62.80
2018-03-19T01:57:36.052Z,63.30
2018-03-19T02:00:02.315Z,63.30
2018-03-19T02:02:28.567Z,63.20
2018-03-19T02:04:55.481Z,63.40
2018-03-19T02:07:21.707Z,63.40
2018-03-19T02:09:47.951Z,63.60
2018-03-19T02:12:14.179Z,63.50
2018-03-19T02:14:41.184Z,63.90
2018-03-19T02:17:07.392Z,63.90
2018-03-19T02:19:33.569Z,64.10
2018-03-19T02:21:59.784Z,64.20
2018-03-19T02:24:26.008Z,64.40
2018-03-19T02:26:52.234Z,64.00
2018-03-19T02:29:18.405Z,64.90
2018-03-19T02:31:45.370Z,63.70
2018-03-19T02:34:11.663Z,63.60
2018-03-19T02:36:38.670Z,65.00
2018-03-19T02:39:04.853Z,64.20
2018-03-19T02:41:31.816Z,64.30
2018-03-19T02:43:58.114Z,64.30
2018-03-19T02:46:24.373Z,64.60
2018-03-19T02:48:50.601Z,65.10
2018-03-19T02:51:16.862Z,64.90
2018-03-19T02:53:43.061Z,64.90
2018-03-19T02:56:09.260Z,64.60
2018-03-19T02:58:35.458Z,64.60
2018-03-19T03:01:01.636Z,64.70
2018-03-19T03:03:27.880Z,64.90
2018-03-19T03:05:54.116Z,64.80
2018-03-19T03:08:20.409Z,65.00
2018-03-19T03:10:46.614Z,64.80
2018-03-19T03:13:12.841Z,65.00
2018-03-19T03:15:39.793Z,65.00
2018-03-19T03:18:05.976Z,65.00
2018-03-19T03:20:32.213Z,65.10
2018-03-19T03:22:58.449Z,65.20
2018-03-19T03:25:24.714Z,65.00
2018-03-19T03:27:50.931Z,64.80
2018-03-19T03:30:17.932Z,65.20
2018-03-19T03:32:44.165Z,65.10
2018-03-19T03:35:10.332Z,65.00
2018-03-19T03:37:37.302Z,65.10
2018-03-19T03:40:03.573Z,65.10
2018-03-19T03:42:29.745Z,64.90
2018-03-19T03:44:56.024Z,65.00
2018-03-19T03:47:22.250Z,65.20
2018-03-19T03:49:48.465Z,65.20
2018-03-19T03:52:14.723Z,65.10
2018-03-19T03:54:40.997Z,65.20
2018-03-19T03:57:07.194Z,65.50
2018-03-19T03:59:34.144Z,65.50
2018-03-19T04:02:01.123Z,65.50
2018-03-19T04:04:27.306Z,65.40
2018-03-19T04:06:53.554Z,65.60
2018-03-19T04:09:20.549Z,65.20
2018-03-19T04:11:46.776Z,65.20
2018-03-19T04:14:13.026Z,65.10
2018-03-19T04:16:39.264Z,65.30
2018-03-19T04:19:05.482Z,65.50
2018-03-19T04:21:32.499Z,65.60
2018-03-19T04:23:58.749Z,65.60
2018-03-19T04:26:24.966Z,65.70
2018-03-19T04:28:51.217Z,65.60
2018-03-19T04:31:17.424Z,66.10
2018-03-19T04:33:43.598Z,65.60
2018-03-19T04:36:10.581Z,66.10
2018-03-19T04:38:36.791Z,66.00
2018-03-19T04:41:03.005Z,65.70
2018-03-19T04:43:29.260Z,65.20
2018-03-19T04:45:55.479Z,65.10
2018-03-19T04:48:21.785Z,65.10
2018-03-19T04:50:48.756Z,65.10
2018-03-19T04:53:14.997Z,65.10
2018-03-19T04:55:41.205Z,65.00
2018-03-19T04:58:07.408Z,65.30
2018-03-19T05:00:34.353Z,65.50
2018-03-19T05:03:01.303Z,65.80
2018-03-19T05:05:27.481Z,65.60
2018-03-19T05:07:53.700Z,64.90
2018-03-19T05:10:19.989Z,65.00
2018-03-19T05:12:46.927Z,64.30
2018-03-19T05:15:13.898Z,64.50
2018-03-19T05:17:40.170Z,64.50
2018-03-19T05:20:06.333Z,64.90
2018-03-19T05:22:32.584Z,64.90
2018-03-19T05:24:58.793Z,64.80
2018-03-19T05:27:25.045Z,64.80
2018-03-19T05:29:51.261Z,65.00
2018-03-19T05:32:17.525Z,64.80
2018-03-19T05:34:43.769Z,65.00
2018-03-19T05:37:10.005Z,65.10
2018-03-19T05:39:36.215Z,65.40
2018-03-19T05:42:02.480Z,65.50
2018-03-19T05:44:29.405Z,65.10
2018-03-19T05:46:55.585Z,65.10
2018-03-19T05:49:21.840Z,65.60
2018-03-19T05:51:48.053Z,65.50
2018-03-19T05:54:14.283Z,64.90
2018-03-19T05:56:40.516Z,65.00
2018-03-19T05:59:06.776Z,65.20
2018-03-19T06:01:33.004Z,65.50
2018-03-19T06:03:59.214Z,65.80
2018-03-19T06:06:25.456Z,65.50
2018-03-19T06:08:51.644Z,65.90
2018-03-19T06:11:17.872Z,67.00
2018-03-19T06:13:44.146Z,66.10
2018-03-19T06:16:11.104Z,65.80
2018-03-19T06:18:38.118Z,65.90
2018-03-19T06:21:04.314Z,65.90
2018-03-19T06:23:30.527Z,65.80
2018-03-19T06:25:56.741Z,66.00
2018-03-19T06:28:23.027Z,65.80
2018-03-19T06:30:49.265Z,65.80
2018-03-19T06:33:15.448Z,66.10
2018-03-19T06:35:41.727Z,66.10
2018-03-19T06:38:07.944Z,65.90
2018-03-19T06:40:34.185Z,67.20
2018-03-19T06:43:01.193Z,66.60
2018-03-19T06:45:27.376Z,66.50
2018-03-19T06:47:54.328Z,66.50
2018-03-19T06:50:20.545Z,66.50
2018-03-19T06:52:47.542Z,66.60
2018-03-19T06:55:13.813Z,66.50
2018-03-19T06:57:40.761Z,66.70
2018-03-19T07:00:07.732Z,66.70
2018-03-19T07:02:33.944Z,66.60
2018-03-19T07:05:00.908Z,67.00
2018-03-19T07:07:27.157Z,66.90
2018-03-19T07:09:53.399Z,66.80
2018-03-19T07:12:19.585Z,67.30
2018-03-19T07:14:45.840Z,67.10
2018-03-19T07:17:12.081Z,66.90
2018-03-19T07:19:38.300Z,67.10
2018-03-19T07:22:04.516Z,68.00
2018-03-19T07:24:30.717Z,68.10
2018-03-19T07:26:56.951Z,67.30
2018-03-19T07:29:23.213Z,67.10
2018-03-19T07:31:49.429Z,67.20
2018-03-19T07:34:15.741Z,67.40
2018-03-19T07:36:41.945Z,67.40
2018-03-19T07:39:08.167Z,67.80
2018-03-19T07:41:34.404Z,67.40
2018-03-19T07:44:01.423Z,67.60
2018-03-19T07:46:27.622Z,67.60
2018-03-19T07:48:53.841Z,67.50
2018-03-19T07:51:20.051Z,67.30
2018-03-19T07:53:46.275Z,67.40
2018-03-19T07:56:12.493Z,67.70
2018-03-19T07:58:38.714Z,67.60
2018-03-19T08:01:04.955Z,67.60
2018-03-19T08:03:31.208Z,67.80
2018-03-19T08:05:57.446Z,67.50
2018-03-19T08:08:23.612Z,66.90
2018-03-19T08:10:50.563Z,67.80
2018-03-19T08:13:17.509Z,67.70
2018-03-19T08:15:44.443Z,67.90
2018-03-19T08:18:10.652Z,67.80
2018-03-19T08:20:36.865Z,67.70
2018-03-19T08:23:03.040Z,67.60
2018-03-19T08:25:29.970Z,67.50
2018-03-19T08:27:56.944Z,67.50
2018-03-19T08:30:23.610Z,67.50
2018-03-19T08:32:49.905Z,67.20
2018-03-19T08:35:16.131Z,67.30
2018-03-19T08:37:42.365Z,66.80
2018-03-19T08:40:09.676Z,67.00
2018-03-19T08:42:35.848Z,66.60
2018-03-19T08:45:02.084Z,66.90
2018-03-19T08:47:28.347Z,66.70
2018-03-19T08:49:54.551Z,66.60
2018-03-19T08:52:20.765Z,66.10
2018-03-19T08:54:46.994Z,66.10
2018-03-19T08:57:13.217Z,66.20
2018-03-19T08:59:39.408Z,66.00
2018-03-19T09:02:05.606Z,65.70
2018-03-19T09:04:31.802Z,65.70
2018-03-19T09:06:58.049Z,65.70
2018-03-19T09:09:24.289Z,65.80
2018-03-19T09:11:50.468Z,65.80
2018-03-19T09:14:17.430Z,65.50
2018-03-19T09:16:43.674Z,66.20
2018-03-19T09:19:09.853Z,65.00
2018-03-19T09:21:36.805Z,65.30
2018-03-19T09:24:03.778Z,65.00
2018-03-19T09:26:30.023Z,64.90
2018-03-19T09:28:56.287Z,64.80
2018-03-19T09:31:23.373Z,65.10
2018-03-19T09:33:49.563Z,65.10
2018-03-19T09:36:15.745Z,64.50
2018-03-19T09:38:41.997Z,65.10
2018-03-19T09:41:08.189Z,65.00
2018-03-19T09:43:34.439Z,65.20
2018-03-19T09:46:00.634Z,64.80
2018-03-19T09:48:26.818Z,66.00
2018-03-19T09:50:53.023Z,65.50
2018-03-19T09:53:19.240Z,65.80
2018-03-19T09:55:45.473Z,65.10
2018-03-19T09:58:11.647Z,64.90
2018-03-19T10:00:38.588Z,64.60
2018-03-19T10:03:04.802Z,64.50
2018-03-19T10:05:31.113Z,64.90
2018-03-19T10:07:57.365Z,63.50
2018-03-19T10:10:23.587Z,63.70
2018-03-19T10:12:49.808Z,63.80
2018-03-19T10:15:16.784Z,63.10
2018-03-19T10:17:43.769Z,64.00
2018-03-19T10:20:09.971Z,64.00
2018-03-19T10:22:36.181Z,63.50
2018-03-19T10:25:03.120Z,63.40
2018-03-19T10:27:30.058Z,63.40
2018-03-19T10:29:56.276Z,63.30
2018-03-19T10:32:22.516Z,62.60
2018-03-19T10:34:48.822Z,62.50
2018-03-19T10:37:15.080Z,62.30
2018-03-19T10:39:42.069Z,62.20
2018-03-19T10:42:08.293Z,62.20
2018-03-19T10:44:34.609Z,62.50
2018-03-19T10:47:00.995Z,63.50
2018-03-19T10:49:27.230Z,62.80
2018-03-19T10:51:54.152Z,62.20
2018-03-19T10:54:20.443Z,62.10
2018-03-19T10:56:46.709Z,61.90
2018-03-19T10:59:12.959Z,61.70
2018-03-19T11:01:42.163Z,61.00
2018-03-19T11:04:14.062Z,61.30
2018-03-19T11:06:59.038Z,61.30
2018-03-19T11:09:27.037Z,61.30
2018-03-19T11:11:53.317Z,62.00
2018-03-19T11:14:19.479Z,60.70
2018-03-19T11:16:45.694Z,60.90
2018-03-19T11:19:11.920Z,61.80
2018-03-19T11:21:38.155Z,61.00
2018-03-19T11:24:04.300Z,60.60
2018-03-19T11:26:30.551Z,60.30
2018-03-19T11:28:56.798Z,60.80
2018-03-19T11:31:23.116Z,62.60
2018-03-19T11:33:49.302Z,61.50
2018-03-19T11:36:15.576Z,61.80
2018-03-19T11:38:42.490Z,61.50
2018-03-19T11:41:08.778Z,61.40
2018-03-19T11:43:34.984Z,60.30
2018-03-19T11:46:01.906Z,60.90
2018-03-19T11:48:28.112Z,60.80
2018-03-19T11:50:54.348Z,60.30
2018-03-19T11:53:20.543Z,59.00
2018-03-19T11:55:46.735Z,59.80
2018-03-19T11:58:13.680Z,60.30
2018-03-19T12:00:39.911Z,60.30
2018-03-19T12:03:06.129Z,59.90
2018-03-19T12:05:33.104Z,60.00
2018-03-19T12:07:59.304Z,60.00
2018-03-19T12:10:26.304Z,59.50
2018-03-19T12:12:52.484Z,59.40
2018-03-19T12:15:18.715Z,59.60
2018-03-19T12:17:44.932Z,60.20
2018-03-19T12:20:11.908Z,58.60
2018-03-19T12:22:38.136Z,58.60
2018-03-19T12:25:04.448Z,59.80
2018-03-19T12:27:30.677Z,59.60
2018-03-19T12:29:56.875Z,59.70
2018-03-19T12:32:23.832Z,60.30
2018-03-19T12:34:50.791Z,60.10
2018-03-19T12:37:16.963Z,60.10
2018-03-19T12:39:43.177Z,61.00
2018-03-19T12:42:09.404Z,60.40
2018-03-19T12:44:35.620Z,59.70
2018-03-19T12:47:01.878Z,59.70
2018-03-19T12:49:28.065Z,59.50
2018-03-19T12:51:54.310Z,59.20
2018-03-19T12:54:21.606Z,58.80
2018-03-19T12:56:47.795Z,58.60
2018-03-19T12:59:14.008Z,58.40
2018-03-19T13:01:40.267Z,59.70
2018-03-19T13:04:06.457Z,60.10
2018-03-19T13:06:32.775Z,59.50
2018-03-19T13:08:59.119Z,59.50
2018-03-19T13:11:26.012Z,58.80
2018-03-19T13:13:52.188Z,58.70
2018-03-19T13:16:18.432Z,59.00
2018-03-19T13:18:44.639Z,59.30
2018-03-19T13:21:10.857Z,58.70
2018-03-19T13:23:37.201Z,59.50
2018-03-19T13:26:03.434Z,58.50
2018-03-19T13:28:29.672Z,59.40
2018-03-19T13:30:55.862Z,59.80
2018-03-19T13:33:22.858Z,59.90
2018-03-19T13:35:49.026Z,59.80
2018-03-19T13:38:16.008Z,58.80
2018-03-19T13:40:42.241Z,58.60
2018-03-19T13:43:08.482Z,58.80
2018-03-19T13:45:34.700Z,58.40
2018-03-19T13:48:01.140Z,58.90
2018-03-19T13:50:28.130Z,59.40
2018-03-19T13:52:54.395Z,59.40
2018-03-19T13:55:20.604Z,59.50
2018-03-19T13:57:46.852Z,59.70
2018-03-19T14:00:13.061Z,59.10
2018-03-19T14:02:39.304Z,58.90
2018-03-19T14:05:05.582Z,57.80
2018-03-19T14:07:31.849Z,58.40
2018-03-19T14:09:58.136Z,59.30
2018-03-19T14:12:25.138Z,60.40
2018-03-19T14:14:51.385Z,60.30
2018-03-19T14:17:17.622Z,59.10
2018-03-19T14:19:43.909Z,59.70
2018-03-19T14:22:10.125Z,61.30
2018-03-19T14:24:37.153Z,59.30
2018-03-19T14:27:03.422Z,59.30
2018-03-19T14:29:29.684Z,58.90
2018-03-19T14:31:55.962Z,58.00
2018-03-19T14:34:22.811Z,58.00
2018-03-19T14:36:49.728Z,57.80
2018-03-19T14:39:16.005Z,57.70
2018-03-19T14:41:42.262Z,57.90
2018-03-19T14:44:08.437Z,58.80
2018-03-19T14:46:34.650Z,58.60
2018-03-19T14:49:01.600Z,57.90
2018-03-19T14:51:28.577Z,57.60
2018-03-19T14:53:54.819Z,57.60
2018-03-19T14:56:21.045Z,57.40
2018-03-19T14:58:47.255Z,58.10
2018-03-19T15:01:13.433Z,57.80
2018-03-19T15:03:39.657Z,58.70
2018-03-19T15:06:05.897Z,57.20
2018-03-19T15:08:32.114Z,56.60
2018-03-19T15:10:58.363Z,57.10
2018-03-19T15:13:25.342Z,57.20
2018-03-19T15:15:51.542Z,57.20
2018-03-19T15:18:17.793Z,57.20
2018-03-19T15:20:44.021Z,57.20
2018-03-19T15:23:10.191Z,56.40
2018-03-19T15:25:36.391Z,56.90
2018-03-19T15:28:02.645Z,57.30
2018-03-19T15:30:29.238Z,57.30
2018-03-19T15:32:55.536Z,56.30
2018-03-19T15:35:22.485Z,57.00
2018-03-19T15:37:48.826Z,57.00
2018-03-19T15:40:15.077Z,57.50
2018-03-19T15:42:41.347Z,57.40
2018-03-19T15:45:07.658Z,57.10
2018-03-19T15:47:33.970Z,58.00
2018-03-19T15:50:01.146Z,58.00
2018-03-19T15:52:27.440Z,58.00
2018-03-19T15:54:53.742Z,58.30
2018-03-19T15:57:20.706Z,59.70
2018-03-19T15:59:46.941Z,59.60
2018-03-19T16:02:13.115Z,59.80
2018-03-19T16:04:39.378Z,58.10
2018-03-19T16:07:06.304Z,58.70
2018-03-19T16:09:32.491Z,58.70
2018-03-19T16:11:58.668Z,59.00
2018-03-19T16:14:25.654Z,58.50
2018-03-19T16:16:51.861Z,58.40
2018-03-19T16:19:18.101Z,58.20
2018-03-19T16:21:44.311Z,58.20
2018-03-19T16:24:10.517Z,58.60
2018-03-19T16:26:36.748Z,58.20
2018-03-19T16:29:03.050Z,58.50
2018-03-19T16:31:29.305Z,59.50
2018-03-19T16:33:56.362Z,58.50
2018-03-19T16:36:23.368Z,58.70
2018-03-19T16:38:49.570Z,58.60
2018-03-19T16:41:15.758Z,59.30
2018-03-19T16:43:42.714Z,59.70
2018-03-19T16:46:08.959Z,59.60
2018-03-19T16:48:35.136Z,59.20
2018-03-19T16:51:01.446Z,59.40
2018-03-19T16:53:27.675Z,59.50
2018-03-19T16:55:53.891Z,59.70
2018-03-19T16:58:20.137Z,58.50
2018-03-19T17:00:46.389Z,59.00
2018-03-19T17:03:13.221Z,58.00
2018-03-19T17:05:39.458Z,59.10
2018-03-19T17:08:05.722Z,59.50
2018-03-19T17:10:31.893Z,59.20
2018-03-19T17:12:58.210Z,59.50
2018-03-19T17:15:24.425Z,59.40
2018-03-19T17:17:50.625Z,59.20
2018-03-19T17:20:16.832Z,59.50
2018-03-19T17:22:43.797Z,58.90
2018-03-19T17:25:10.056Z,58.80
2018-03-19T17:27:36.244Z,59.20
2018-03-19T17:30:03.200Z,59.30
2018-03-19T17:32:29.470Z,59.20
2018-03-19T17:34:55.677Z,59.50
2018-03-19T17:37:21.883Z,58.70
2018-03-19T17:39:48.846Z,58.50
2018-03-19T17:42:15.070Z,58.50
2018-03-19T17:44:41.379Z,58.80
2018-03-19T17:47:07.682Z,59.10
2018-03-19T17:49:33.884Z,58.60
2018-03-19T17:52:00.077Z,58.50
2018-03-19T17:54:26.295Z,59.20
2018-03-19T17:56:52.520Z,59.30
2018-03-19T17:59:18.712Z,58.90
2018-03-19T18:01:44.907Z,59.20
2018-03-19T18:04:11.129Z,59.00
2018-03-19T18:06:37.348Z,59.60
2018-03-19T18:09:03.712Z,59.40
2018-03-19T18:11:29.961Z,59.50
2018-03-19T18:13:56.158Z,58.80
2018-03-19T18:16:22.380Z,59.50
2018-03-19T18:18:48.656Z,59.10
2018-03-19T18:21:14.845Z,59.30
2018-03-19T18:23:41.100Z,59.20
2018-03-19T18:26:07.350Z,59.40
2018-03-19T18:28:34.270Z,59.10
2018-03-19T18:31:00.525Z,59.00
2018-03-19T18:33:27.454Z,58.90
2018-03-19T18:35:54.465Z,59.10
2018-03-19T18:38:20.710Z,59.20
2018-03-19T18:40:46.967Z,59.50
2018-03-19T18:43:13.880Z,59.30
2018-03-19T18:45:40.082Z,59.10
2018-03-19T18:48:06.282Z,59.50
2018-03-19T18:50:32.502Z,59.20
2018-03-19T18:52:58.749Z,59.30
2018-03-19T18:55:25.022Z,59.30
2018-03-19T18:57:51.333Z,59.20
2018-03-19T19:00:17.546Z,59.10
2018-03-19T19:02:43.734Z,59.20
2018-03-19T19:05:10.770Z,59.30
2018-03-19T19:07:37.703Z,59.10
2018-03-19T19:10:03.937Z,59.10
2018-03-19T19:12:30.149Z,58.90
2018-03-19T19:14:56.385Z,59.00
2018-03-19T19:17:23.362Z,59.20
2018-03-19T19:19:49.581Z,59.20
2018-03-19T19:22:15.829Z,59.20
2018-03-19T19:24:42.076Z,60.20
2018-03-19T19:27:08.243Z,59.60
2018-03-19T19:29:34.521Z,59.50
2018-03-19T19:32:00.792Z,59.50
2018-03-19T19:34:26.996Z,59.30
2018-03-19T19:36:53.281Z,59.00
2018-03-19T19:39:20.225Z,59.80
2018-03-19T19:41:46.428Z,59.80
2018-03-19T19:44:12.693Z,59.50
2018-03-19T19:46:38.891Z,59.60
2018-03-19T19:49:05.084Z,59.40
2018-03-19T19:51:31.333Z,59.60
2018-03-19T19:53:57.592Z,59.80
2018-03-19T19:56:24.619Z,59.80
2018-03-19T19:58:50.900Z,59.80
2018-03-19T20:01:18.392Z,59.50
2018-03-19T20:03:44.658Z,59.80
2018-03-19T20:06:10.873Z,59.60
2018-03-19T20:08:37.852Z,59.90
2018-03-19T20:11:04.106Z,59.90
2018-03-19T20:13:30.421Z,59.70
2018-03-19T20:15:56.776Z,59.70
2018-03-19T20:18:23.794Z,59.70
2018-03-19T20:20:50.010Z,59.60
2018-03-19T20:23:16.265Z,59.70
2018-03-19T20:25:42.509Z,59.70
2018-03-19T20:28:09.615Z,60.40
2018-03-19T20:30:35.927Z,60.30
2018-03-19T20:33:02.150Z,60.40
2018-03-19T20:35:28.396Z,61.80
2018-03-19T20:37:54.641Z,61.00
2018-03-19T20:40:20.892Z,61.40
2018-03-19T20:42:47.207Z,61.60
2018-03-19T20:45:13.521Z,61.70
2018-03-19T20:47:39.736Z,61.80
2018-03-19T20:50:05.993Z,61.60
2018-03-19T20:52:32.251Z,61.60
2018-03-19T20:54:59.231Z,60.30
2018-03-19T20:57:25.498Z,60.10
2018-03-19T20:59:51.708Z,59.70
2018-03-19T21:02:17.911Z,59.60
2018-03-19T21:04:44.867Z,59.30
2018-03-19T21:07:11.087Z,59.30
2018-03-19T21:09:37.260Z,58.50
2018-03-19T21:12:03.536Z,58.70
2018-03-19T21:14:30.537Z,58.00
2018-03-19T21:16:56.745Z,58.00
2018-03-19T21:19:22.941Z,57.70
2018-03-19T21:21:49.883Z,57.60
2018-03-19T21:24:16.826Z,56.90
2018-03-19T21:26:43.777Z,56.80
2018-03-19T21:29:09.969Z,56.70
2018-03-19T21:31:36.196Z,57.30
2018-03-19T21:34:02.425Z,56.90
2018-03-19T21:36:28.704Z,57.30
2018-03-19T21:38:54.908Z,57.60
2018-03-19T21:41:21.859Z,57.60
2018-03-19T21:43:48.793Z,57.80
2018-03-19T21:46:15.721Z,57.60
2018-03-19T21:48:41.923Z,57.60
2018-03-19T21:51:08.084Z,57.10
2018-03-19T21:53:35.015Z,57.30
2018-03-19T21:56:01.269Z,57.20
2018-03-19T21:58:28.270Z,57.60
2018-03-19T22:00:54.485Z,57.60
2018-03-19T22:03:20.648Z,57.60
2018-03-19T22:05:46.841Z,57.60
2018-03-19T22:08:13.045Z,57.00
2018-03-19T22:10:39.321Z,57.50
2018-03-19T22:13:05.499Z,57.50
2018-03-19T22:15:31.673Z,57.90
2018-03-19T22:17:57.952Z,58.40
2018-03-19T22:20:24.956Z,57.90
2018-03-19T22:22:51.153Z,57.90
2018-03-19T22:25:17.373Z,57.80
2018-03-19T22:27:43.611Z,57.80
2018-03-19T22:30:09.816Z,57.10
2018-03-19T22:32:36.004Z,56.90
2018-03-19T22:35:02.966Z,55.50
2018-03-19T22:37:29.171Z,55.40
2018-03-19T22:39:55.385Z,56.00
2018-03-19T22:42:21.610Z,56.20
2018-03-19T22:44:47.787Z,56.20
2018-03-19T22:47:13.974Z,56.60
2018-03-19T22:49:40.309Z,56.50
2018-03-19T22:52:06.473Z,57.00
2018-03-19T22:54:32.736Z,57.20
2018-03-19T22:56:58.933Z,56.20
2018-03-19T22:59:25.162Z,56.60
2018-03-19T23:01:51.360Z,56.60
2018-03-19T23:04:30.381Z,56.30
2018-03-19T23:06:57.340Z,56.40
2018-03-19T23:09:23.565Z,56.40
2018-03-19T23:11:50.519Z,56.80
2018-03-19T23:14:16.711Z,56.80
2018-03-19T23:16:42.912Z,57.20
2018-03-19T23:19:09.155Z,57.20
2018-03-19T23:21:35.371Z,56.40
2018-03-19T23:24:01.569Z,56.40
2018-03-19T23:26:27.792Z,56.70
2018-03-19T23:28:54.060Z,56.30
2018-03-19T23:31:20.287Z,56.50
2018-03-19T23:33:46.436Z,56.60
2018-03-19T23:36:12.616Z,57.40
2018-03-19T23:38:38.802Z,57.00
2018-03-19T23:41:05.705Z,57.50
2018-03-19T23:43:31.933Z,57.50
2018-03-19T23:45:58.157Z,57.60
2018-03-19T23:48:24.396Z,57.50
2018-03-19T23:50:50.625Z,57.40
2018-03-19T23:53:16.789Z,57.40
2018-03-19T23:55:43.840Z,58.00
2018-03-19T23:58:10.783Z,57.90
